sensor_id;sensor_type;location;lat;lon;timestamp;temperature;humidity
27759;DHT22;15148;48.972;12.794;2023-04-24T00:00:30;10.80;99.90
27759;DHT22;15148;48.972;12.794;2023-04-24T00:05:32;10.80;99.90
27759;DHT22;15148;48.972;12.794;2023-04-24T00:10:35;10.90;99.90
27759;DHT22;15148;48.972;12.794;2023-04-24T00:15:37;10.90;99.90
27759;DHT22;15148;48.972;12.794;2023-04-24T00:20:38;10.90;99.90
27759;DHT22;15148;48.972;12.794;2023-04-24T00:25:41;10.90;99.90
27759;DHT22;15148;48.972;12.794;2023-04-24T00:30:43;10.90;99.90
27759;DHT22;15148;48.972;12.794;2023-04-24T00:35:44;10.80;99.90
27759;DHT22;15148;48.972;12.794;2023-04-24T00:40:46;10.90;99.90
27759;DHT22;15148;48.972;12.794;2023-04-24T00:45:49;10.90;99.90
27759;DHT22;15148;48.972;12.794;2023-04-24T00:50:51;10.90;99.90
27759;DHT22;15148;48.972;12.794;2023-04-24T00:55:52;10.90;99.90
27759;DHT22;15148;48.972;12.794;2023-04-24T01:00:56;10.90;99.90
27759;DHT22;15148;48.972;12.794;2023-04-24T01:05:59;10.90;99.90
27759;DHT22;15148;48.972;12.794;2023-04-24T01:11:03;10.80;99.90
27759;DHT22;15148;48.972;12.794;2023-04-24T01:16:05;10.90;99.90
27759;DHT22;15148;48.972;12.794;2023-04-24T01:21:08;10.90;99.90
27759;DHT22;15148;48.972;12.794;2023-04-24T01:26:11;10.90;99.90
27759;DHT22;15148;48.972;12.794;2023-04-24T01:31:12;10.90;99.90
27759;DHT22;15148;48.972;12.794;2023-04-24T01:36:16;10.90;99.90
27759;DHT22;15148;48.972;12.794;2023-04-24T01:41:18;10.90;99.90
27759;DHT22;15148;48.972;12.794;2023-04-24T01:46:22;10.80;99.90
27759;DHT22;15148;48.972;12.794;2023-04-24T01:51:24;10.70;99.90
27759;DHT22;15148;48.972;12.794;2023-04-24T01:56:29;10.70;99.90
27759;DHT22;15148;48.972;12.794;2023-04-24T02:01:35;10.70;99.90
27759;DHT22;15148;48.972;12.794;2023-04-24T02:06:37;10.70;99.90
27759;DHT22;15148;48.972;12.794;2023-04-24T02:11:39;10.70;99.90
27759;DHT22;15148;48.972;12.794;2023-04-24T02:16:41;10.80;99.90
27759;DHT22;15148;48.972;12.794;2023-04-24T02:21:43;10.80;99.90
27759;DHT22;15148;48.972;12.794;2023-04-24T02:26:45;10.70;99.90
27759;DHT22;15148;48.972;12.794;2023-04-24T02:31:46;10.70;99.90
27759;DHT22;15148;48.972;12.794;2023-04-24T02:36:49;10.70;99.90
27759;DHT22;15148;48.972;12.794;2023-04-24T02:41:51;10.70;99.90
27759;DHT22;15148;48.972;12.794;2023-04-24T02:46:52;10.70;99.90
27759;DHT22;15148;48.972;12.794;2023-04-24T02:51:54;10.80;99.90
27759;DHT22;15148;48.972;12.794;2023-04-24T02:56:56;10.80;99.90
27759;DHT22;15148;48.972;12.794;2023-04-24T03:01:58;10.80;99.90
27759;DHT22;15148;48.972;12.794;2023-04-24T03:07:00;10.90;99.90
27759;DHT22;15148;48.972;12.794;2023-04-24T03:12:02;10.80;99.90
27759;DHT22;15148;48.972;12.794;2023-04-24T03:17:05;10.80;99.90
27759;DHT22;15148;48.972;12.794;2023-04-24T03:22:07;10.90;99.90
27759;DHT22;15148;48.972;12.794;2023-04-24T03:27:11;10.80;99.90
27759;DHT22;15148;48.972;12.794;2023-04-24T03:32:39;10.90;99.90
27759;DHT22;15148;48.972;12.794;2023-04-24T03:37:44;10.90;99.90
27759;DHT22;15148;48.972;12.794;2023-04-24T03:43:04;10.90;99.90
27759;DHT22;15148;48.972;12.794;2023-04-24T03:48:07;10.80;99.90
27759;DHT22;15148;48.972;12.794;2023-04-24T03:53:09;10.70;99.90
27759;DHT22;15148;48.972;12.794;2023-04-24T03:58:14;10.70;99.90
27759;DHT22;15148;48.972;12.794;2023-04-24T04:03:17;10.70;99.90
27759;DHT22;15148;48.972;12.794;2023-04-24T04:08:20;10.80;99.90
27759;DHT22;15148;48.972;12.794;2023-04-24T04:13:22;10.80;99.90
27759;DHT22;15148;48.972;12.794;2023-04-24T04:18:24;10.70;99.90
27759;DHT22;15148;48.972;12.794;2023-04-24T04:23:26;10.70;99.90
27759;DHT22;15148;48.972;12.794;2023-04-24T04:28:49;10.70;99.90
27759;DHT22;15148;48.972;12.794;2023-04-24T04:33:51;10.70;99.90
27759;DHT22;15148;48.972;12.794;2023-04-24T04:38:54;10.80;99.90
27759;DHT22;15148;48.972;12.794;2023-04-24T04:44:19;10.70;99.90
27759;DHT22;15148;48.972;12.794;2023-04-24T04:49:21;10.70;99.90
27759;DHT22;15148;48.972;12.794;2023-04-24T04:54:25;10.80;99.90
27759;DHT22;15148;48.972;12.794;2023-04-24T04:59:28;10.80;99.90
27759;DHT22;15148;48.972;12.794;2023-04-24T05:04:37;10.70;99.90
27759;DHT22;15148;48.972;12.794;2023-04-24T05:09:39;10.70;99.90
27759;DHT22;15148;48.972;12.794;2023-04-24T05:19:57;10.80;99.90
27759;DHT22;15148;48.972;12.794;2023-04-24T05:24:59;10.70;99.90
27759;DHT22;15148;48.972;12.794;2023-04-24T05:30:10;10.70;99.90
27759;DHT22;15148;48.972;12.794;2023-04-24T05:35:12;10.80;99.90
27759;DHT22;15148;48.972;12.794;2023-04-24T05:40:19;10.70;99.90
27759;DHT22;15148;48.972;12.794;2023-04-24T05:45:21;10.80;99.90
27759;DHT22;15148;48.972;12.794;2023-04-24T05:50:22;10.80;99.90
27759;DHT22;15148;48.972;12.794;2023-04-24T05:55:25;10.70;99.90
27759;DHT22;15148;48.972;12.794;2023-04-24T06:00:28;10.70;99.90
27759;DHT22;15148;48.972;12.794;2023-04-24T06:05:37;10.70;99.90
27759;DHT22;15148;48.972;12.794;2023-04-24T06:10:39;10.70;99.90
27759;DHT22;15148;48.972;12.794;2023-04-24T06:15:43;10.70;99.90
27759;DHT22;15148;48.972;12.794;2023-04-24T06:20:51;10.70;99.90
27759;DHT22;15148;48.972;12.794;2023-04-24T06:25:53;10.60;99.90
27759;DHT22;15148;48.972;12.794;2023-04-24T06:30:55;10.60;99.90
27759;DHT22;15148;48.972;12.794;2023-04-24T06:35:57;10.60;99.90
27759;DHT22;15148;48.972;12.794;2023-04-24T06:40:59;10.60;99.90
27759;DHT22;15148;48.972;12.794;2023-04-24T06:46:01;10.60;99.90
27759;DHT22;15148;48.972;12.794;2023-04-24T06:51:05;10.60;99.90
27759;DHT22;15148;48.972;12.794;2023-04-24T06:56:07;10.60;99.90
27759;DHT22;15148;48.972;12.794;2023-04-24T07:01:10;10.60;99.90
27759;DHT22;15148;48.972;12.794;2023-04-24T07:06:12;10.60;99.90
27759;DHT22;15148;48.972;12.794;2023-04-24T07:11:14;10.60;99.90
27759;DHT22;15148;48.972;12.794;2023-04-24T07:16:16;10.60;99.90
27759;DHT22;15148;48.972;12.794;2023-04-24T07:21:18;10.60;99.90
27759;DHT22;15148;48.972;12.794;2023-04-24T07:26:20;10.70;99.90
27759;DHT22;15148;48.972;12.794;2023-04-24T07:31:22;10.60;99.90
27759;DHT22;15148;48.972;12.794;2023-04-24T07:36:24;10.70;99.90
27759;DHT22;15148;48.972;12.794;2023-04-24T07:41:27;10.70;99.90
27759;DHT22;15148;48.972;12.794;2023-04-24T07:46:30;10.80;99.90
27759;DHT22;15148;48.972;12.794;2023-04-24T07:51:32;10.80;99.90
27759;DHT22;15148;48.972;12.794;2023-04-24T07:56:40;10.80;99.90
27759;DHT22;15148;48.972;12.794;2023-04-24T08:01:44;10.80;99.90
27759;DHT22;15148;48.972;12.794;2023-04-24T08:06:47;10.90;99.90
27759;DHT22;15148;48.972;12.794;2023-04-24T08:11:49;10.90;99.90
27759;DHT22;15148;48.972;12.794;2023-04-24T08:16:54;10.90;99.90
27759;DHT22;15148;48.972;12.794;2023-04-24T08:21:57;10.90;99.90
27759;DHT22;15148;48.972;12.794;2023-04-24T08:26:59;10.90;99.90
27759;DHT22;15148;48.972;12.794;2023-04-24T08:32:00;11.00;99.90
27759;DHT22;15148;48.972;12.794;2023-04-24T08:37:03;11.00;99.90
27759;DHT22;15148;48.972;12.794;2023-04-24T08:42:05;11.20;99.90
27759;DHT22;15148;48.972;12.794;2023-04-24T08:47:10;11.30;99.90
27759;DHT22;15148;48.972;12.794;2023-04-24T08:52:12;11.30;99.90
27759;DHT22;15148;48.972;12.794;2023-04-24T08:57:14;11.30;99.90
27759;DHT22;15148;48.972;12.794;2023-04-24T09:02:16;11.40;99.90
27759;DHT22;15148;48.972;12.794;2023-04-24T09:07:19;11.40;99.90
27759;DHT22;15148;48.972;12.794;2023-04-24T09:12:23;11.50;99.90
27759;DHT22;15148;48.972;12.794;2023-04-24T09:17:25;11.50;99.90
27759;DHT22;15148;48.972;12.794;2023-04-24T09:22:31;11.50;99.90
27759;DHT22;15148;48.972;12.794;2023-04-24T09:27:34;11.60;99.90
27759;DHT22;15148;48.972;12.794;2023-04-24T09:32:36;11.70;99.90
27759;DHT22;15148;48.972;12.794;2023-04-24T09:37:45;12.00;99.90
27759;DHT22;15148;48.972;12.794;2023-04-24T09:42:55;12.30;99.90
27759;DHT22;15148;48.972;12.794;2023-04-24T09:47:58;12.50;99.90
27759;DHT22;15148;48.972;12.794;2023-04-24T09:53:04;12.40;99.90
27759;DHT22;15148;48.972;12.794;2023-04-24T09:58:08;11.70;99.90
27759;DHT22;15148;48.972;12.794;2023-04-24T10:03:10;11.00;99.90
27759;DHT22;15148;48.972;12.794;2023-04-24T10:08:13;10.60;99.90
27759;DHT22;15148;48.972;12.794;2023-04-24T10:13:15;10.40;99.90
27759;DHT22;15148;48.972;12.794;2023-04-24T10:18:17;10.40;99.90
27759;DHT22;15148;48.972;12.794;2023-04-24T10:23:20;10.30;99.90
27759;DHT22;15148;48.972;12.794;2023-04-24T10:28:24;10.40;99.90
27759;DHT22;15148;48.972;12.794;2023-04-24T10:33:28;10.70;99.90
27759;DHT22;15148;48.972;12.794;2023-04-24T10:38:30;11.00;99.90
27759;DHT22;15148;48.972;12.794;2023-04-24T10:43:33;11.40;99.90
27759;DHT22;15148;48.972;12.794;2023-04-24T10:48:35;11.70;99.90
27759;DHT22;15148;48.972;12.794;2023-04-24T10:53:37;12.30;99.90
27759;DHT22;15148;48.972;12.794;2023-04-24T10:58:42;12.90;99.90
27759;DHT22;15148;48.972;12.794;2023-04-24T11:03:54;12.80;99.90
27759;DHT22;15148;48.972;12.794;2023-04-24T11:09:10;12.70;99.90
27759;DHT22;15148;48.972;12.794;2023-04-24T11:14:17;12.60;99.90
27759;DHT22;15148;48.972;12.794;2023-04-24T11:19:26;12.50;99.90
27759;DHT22;15148;48.972;12.794;2023-04-24T11:24:39;12.30;99.90
27759;DHT22;15148;48.972;12.794;2023-04-24T11:29:59;12.00;99.90
27759;DHT22;15148;48.972;12.794;2023-04-24T11:35:03;12.10;99.90
27759;DHT22;15148;48.972;12.794;2023-04-24T11:40:08;12.30;99.90
27759;DHT22;15148;48.972;12.794;2023-04-24T11:45:24;12.30;99.90
27759;DHT22;15148;48.972;12.794;2023-04-24T11:50:27;12.20;99.90
27759;DHT22;15148;48.972;12.794;2023-04-24T11:55:30;12.20;99.90
27759;DHT22;15148;48.972;12.794;2023-04-24T12:00:32;12.30;99.90
27759;DHT22;15148;48.972;12.794;2023-04-24T12:05:38;12.40;99.90
27759;DHT22;15148;48.972;12.794;2023-04-24T12:10:41;12.60;99.90
27759;DHT22;15148;48.972;12.794;2023-04-24T12:15:43;12.70;99.90
27759;DHT22;15148;48.972;12.794;2023-04-24T12:20:45;12.80;99.90
27759;DHT22;15148;48.972;12.794;2023-04-24T12:25:46;12.80;99.90
27759;DHT22;15148;48.972;12.794;2023-04-24T12:30:48;12.70;99.90
27759;DHT22;15148;48.972;12.794;2023-04-24T12:35:54;12.60;99.90
27759;DHT22;15148;48.972;12.794;2023-04-24T12:41:06;12.30;99.90
27759;DHT22;15148;48.972;12.794;2023-04-24T12:46:08;11.80;99.90
27759;DHT22;15148;48.972;12.794;2023-04-24T12:51:10;11.40;99.90
27759;DHT22;15148;48.972;12.794;2023-04-24T12:56:12;10.90;99.90
27759;DHT22;15148;48.972;12.794;2023-04-24T13:01:14;10.90;99.90
27759;DHT22;15148;48.972;12.794;2023-04-24T13:19:08;11.10;99.90
27759;DHT22;15148;48.972;12.794;2023-04-24T13:24:10;12.10;99.90
27759;DHT22;15148;48.972;12.794;2023-04-24T13:29:12;12.30;99.90
27759;DHT22;15148;48.972;12.794;2023-04-24T13:34:13;12.70;99.90
27759;DHT22;15148;48.972;12.794;2023-04-24T13:39:15;12.90;99.90
27759;DHT22;15148;48.972;12.794;2023-04-24T13:44:18;12.80;99.90
27759;DHT22;15148;48.972;12.794;2023-04-24T13:49:21;12.80;99.90
27759;DHT22;15148;48.972;12.794;2023-04-24T13:54:23;12.80;99.90
27759;DHT22;15148;48.972;12.794;2023-04-24T13:59:27;12.40;99.90
27759;DHT22;15148;48.972;12.794;2023-04-24T14:04:29;12.40;99.90
27759;DHT22;15148;48.972;12.794;2023-04-24T14:09:31;12.40;99.90
27759;DHT22;15148;48.972;12.794;2023-04-24T14:14:33;12.40;99.90
27759;DHT22;15148;48.972;12.794;2023-04-24T14:19:35;12.50;99.90
27759;DHT22;15148;48.972;12.794;2023-04-24T14:24:37;12.50;99.90
27759;DHT22;15148;48.972;12.794;2023-04-24T14:29:39;12.50;99.90
27759;DHT22;15148;48.972;12.794;2023-04-24T14:34:41;12.60;99.90
27759;DHT22;15148;48.972;12.794;2023-04-24T14:39:43;12.80;99.90
27759;DHT22;15148;48.972;12.794;2023-04-24T14:44:57;12.90;99.90
27759;DHT22;15148;48.972;12.794;2023-04-24T14:49:58;13.00;99.90
27759;DHT22;15148;48.972;12.794;2023-04-24T14:55:01;13.00;99.90
27759;DHT22;15148;48.972;12.794;2023-04-24T15:00:04;12.90;99.90
27759;DHT22;15148;48.972;12.794;2023-04-24T15:05:07;12.70;99.90
27759;DHT22;15148;48.972;12.794;2023-04-24T15:10:10;12.50;99.90
27759;DHT22;15148;48.972;12.794;2023-04-24T15:15:12;12.40;99.90
27759;DHT22;15148;48.972;12.794;2023-04-24T15:20:14;12.40;99.90
27759;DHT22;15148;48.972;12.794;2023-04-24T15:25:16;12.30;99.90
27759;DHT22;15148;48.972;12.794;2023-04-24T15:30:17;12.20;99.90
27759;DHT22;15148;48.972;12.794;2023-04-24T15:35:20;12.10;99.90
27759;DHT22;15148;48.972;12.794;2023-04-24T15:40:22;11.90;99.90
27759;DHT22;15148;48.972;12.794;2023-04-24T15:45:24;11.80;99.90
27759;DHT22;15148;48.972;12.794;2023-04-24T15:50:26;11.70;99.90
27759;DHT22;15148;48.972;12.794;2023-04-24T15:55:28;11.70;99.90
27759;DHT22;15148;48.972;12.794;2023-04-24T16:00:30;11.60;99.90
27759;DHT22;15148;48.972;12.794;2023-04-24T16:05:35;11.60;99.90
27759;DHT22;15148;48.972;12.794;2023-04-24T16:10:36;11.70;99.90
27759;DHT22;15148;48.972;12.794;2023-04-24T16:15:38;11.70;99.90
27759;DHT22;15148;48.972;12.794;2023-04-24T16:20:41;11.80;99.90
27759;DHT22;15148;48.972;12.794;2023-04-24T16:25:43;11.70;99.90
27759;DHT22;15148;48.972;12.794;2023-04-24T16:30:45;11.60;99.90
27759;DHT22;15148;48.972;12.794;2023-04-24T16:35:47;11.50;99.90
27759;DHT22;15148;48.972;12.794;2023-04-24T16:40:48;11.50;99.90
27759;DHT22;15148;48.972;12.794;2023-04-24T16:45:50;11.40;99.90
27759;DHT22;15148;48.972;12.794;2023-04-24T16:50:53;11.30;99.90
27759;DHT22;15148;48.972;12.794;2023-04-24T16:55:54;11.20;99.90
27759;DHT22;15148;48.972;12.794;2023-04-24T17:00:56;11.30;99.90
27759;DHT22;15148;48.972;12.794;2023-04-24T17:05:58;11.30;99.90
27759;DHT22;15148;48.972;12.794;2023-04-24T17:11:01;11.10;99.90
27759;DHT22;15148;48.972;12.794;2023-04-24T17:16:03;11.20;99.90
27759;DHT22;15148;48.972;12.794;2023-04-24T17:21:05;11.10;99.90
27759;DHT22;15148;48.972;12.794;2023-04-24T17:26:06;10.90;99.90
27759;DHT22;15148;48.972;12.794;2023-04-24T17:31:09;10.90;99.90
27759;DHT22;15148;48.972;12.794;2023-04-24T17:36:10;11.00;99.90
27759;DHT22;15148;48.972;12.794;2023-04-24T17:41:12;10.90;99.90
27759;DHT22;15148;48.972;12.794;2023-04-24T17:46:17;10.80;99.90
27759;DHT22;15148;48.972;12.794;2023-04-24T17:51:19;10.80;99.90
27759;DHT22;15148;48.972;12.794;2023-04-24T17:56:21;10.80;99.90
27759;DHT22;15148;48.972;12.794;2023-04-24T18:01:23;10.70;99.90
27759;DHT22;15148;48.972;12.794;2023-04-24T18:06:25;10.60;99.90
27759;DHT22;15148;48.972;12.794;2023-04-24T18:11:27;10.50;99.90
27759;DHT22;15148;48.972;12.794;2023-04-24T18:16:29;10.50;99.90
27759;DHT22;15148;48.972;12.794;2023-04-24T18:21:31;10.40;99.90
27759;DHT22;15148;48.972;12.794;2023-04-24T18:26:33;10.30;99.90
27759;DHT22;15148;48.972;12.794;2023-04-24T18:31:35;10.20;99.90
27759;DHT22;15148;48.972;12.794;2023-04-24T18:36:37;10.00;99.90
27759;DHT22;15148;48.972;12.794;2023-04-24T18:41:39;9.80;99.90
27759;DHT22;15148;48.972;12.794;2023-04-24T18:46:40;9.60;99.90
27759;DHT22;15148;48.972;12.794;2023-04-24T18:51:42;9.40;99.90
27759;DHT22;15148;48.972;12.794;2023-04-24T19:01:57;9.00;99.90
27759;DHT22;15148;48.972;12.794;2023-04-24T19:06:59;8.90;99.90
27759;DHT22;15148;48.972;12.794;2023-04-24T19:12:01;8.60;99.90
27759;DHT22;15148;48.972;12.794;2023-04-24T19:17:03;8.40;99.90
27759;DHT22;15148;48.972;12.794;2023-04-24T19:22:05;8.30;99.90
27759;DHT22;15148;48.972;12.794;2023-04-24T19:27:08;8.20;99.90
27759;DHT22;15148;48.972;12.794;2023-04-24T19:32:10;8.30;99.90
27759;DHT22;15148;48.972;12.794;2023-04-24T19:37:12;8.20;99.90
27759;DHT22;15148;48.972;12.794;2023-04-24T19:42:14;8.20;99.90
27759;DHT22;15148;48.972;12.794;2023-04-24T19:47:16;8.20;99.90
27759;DHT22;15148;48.972;12.794;2023-04-24T19:52:18;8.00;99.90
27759;DHT22;15148;48.972;12.794;2023-04-24T19:57:20;7.90;99.90
27759;DHT22;15148;48.972;12.794;2023-04-24T20:02:21;7.50;99.90
27759;DHT22;15148;48.972;12.794;2023-04-24T20:07:26;7.40;99.90
27759;DHT22;15148;48.972;12.794;2023-04-24T20:12:28;7.10;99.90
27759;DHT22;15148;48.972;12.794;2023-04-24T20:17:30;7.10;99.90
27759;DHT22;15148;48.972;12.794;2023-04-24T20:22:31;6.90;99.90
27759;DHT22;15148;48.972;12.794;2023-04-24T20:27:39;7.00;99.90
27759;DHT22;15148;48.972;12.794;2023-04-24T20:32:42;6.90;99.90
27759;DHT22;15148;48.972;12.794;2023-04-24T20:37:44;6.80;99.90
27759;DHT22;15148;48.972;12.794;2023-04-24T20:42:46;6.80;99.90
27759;DHT22;15148;48.972;12.794;2023-04-24T20:47:48;6.90;99.90
27759;DHT22;15148;48.972;12.794;2023-04-24T20:52:51;6.90;99.90
27759;DHT22;15148;48.972;12.794;2023-04-24T20:57:53;6.90;99.90
27759;DHT22;15148;48.972;12.794;2023-04-24T21:02:54;7.00;99.90
27759;DHT22;15148;48.972;12.794;2023-04-24T21:07:56;7.10;99.90
27759;DHT22;15148;48.972;12.794;2023-04-24T21:12:58;7.00;99.90
27759;DHT22;15148;48.972;12.794;2023-04-24T21:18:01;7.00;99.90
27759;DHT22;15148;48.972;12.794;2023-04-24T21:23:03;7.00;99.90
27759;DHT22;15148;48.972;12.794;2023-04-24T21:28:05;7.00;99.90
27759;DHT22;15148;48.972;12.794;2023-04-24T21:33:06;7.10;99.90
27759;DHT22;15148;48.972;12.794;2023-04-24T21:38:08;7.00;99.90
27759;DHT22;15148;48.972;12.794;2023-04-24T21:43:10;7.10;99.90
27759;DHT22;15148;48.972;12.794;2023-04-24T21:48:12;7.00;99.90
27759;DHT22;15148;48.972;12.794;2023-04-24T21:53:14;6.80;99.90
27759;DHT22;15148;48.972;12.794;2023-04-24T21:58:16;6.60;99.90
27759;DHT22;15148;48.972;12.794;2023-04-24T22:03:18;6.60;99.90
27759;DHT22;15148;48.972;12.794;2023-04-24T22:08:20;6.50;99.90
27759;DHT22;15148;48.972;12.794;2023-04-24T22:13:22;6.40;99.90
27759;DHT22;15148;48.972;12.794;2023-04-24T22:18:24;6.10;99.90
27759;DHT22;15148;48.972;12.794;2023-04-24T22:23:40;6.10;99.90
27759;DHT22;15148;48.972;12.794;2023-04-24T22:28:42;6.00;99.90
27759;DHT22;15148;48.972;12.794;2023-04-24T22:33:45;6.10;99.90
27759;DHT22;15148;48.972;12.794;2023-04-24T22:38:48;6.00;99.90
27759;DHT22;15148;48.972;12.794;2023-04-24T22:43:50;5.90;99.90
27759;DHT22;15148;48.972;12.794;2023-04-24T22:48:52;6.00;99.90
27759;DHT22;15148;48.972;12.794;2023-04-24T22:53:54;5.90;99.90
27759;DHT22;15148;48.972;12.794;2023-04-24T22:58:57;5.90;99.90
27759;DHT22;15148;48.972;12.794;2023-04-24T23:03:59;6.00;99.90
27759;DHT22;15148;48.972;12.794;2023-04-24T23:09:01;6.10;99.90
27759;DHT22;15148;48.972;12.794;2023-04-24T23:14:03;6.20;99.90
27759;DHT22;15148;48.972;12.794;2023-04-24T23:19:05;6.10;99.90
27759;DHT22;15148;48.972;12.794;2023-04-24T23:24:07;6.10;99.90
27759;DHT22;15148;48.972;12.794;2023-04-24T23:29:09;6.10;99.90
27759;DHT22;15148;48.972;12.794;2023-04-24T23:34:10;6.20;99.90
27759;DHT22;15148;48.972;12.794;2023-04-24T23:39:12;6.20;99.90
27759;DHT22;15148;48.972;12.794;2023-04-24T23:44:14;6.30;99.90
27759;DHT22;15148;48.972;12.794;2023-04-24T23:49:16;6.20;99.90
27759;DHT22;15148;48.972;12.794;2023-04-24T23:54:18;6.30;99.90
27759;DHT22;15148;48.972;12.794;2023-04-24T23:59:20;6.40;99.90
